• Join FlightAware (Why Join?)
  • Login
  • US Flag 
11:02PM EST


 

Airport Tracker/Info


-or-


 

Live Flight TrackerFlight Track Log ✈ SCX8701 ✈ 02-Jun-2014 ✈ KPIE - KSGF

Flight Track Log - Related Links

Times and Time Zones

All times are in EDT time to prevent confusion due to time zone crossing. See the SCX8701 flight status page for this flight to view local times or setup timezone preferences in your user account.

Time Position Orientation Groundspeed Altitude Reporting Facility
EDT Latitude Longitude Course Direction KTS MPH feet Rate Location/Type
07:42PM 27.9333 -82.7000 16° North 169 194 900  Level Tampa TRACON
07:43PM 27.9833 -82.6833 16° North 207 238 2,400 1,800 Climbing Tampa TRACON
07:44PM 28.0333 -82.6500 30° Northeast 247 284 4,600 1,860 Climbing Tampa TRACON
07:45PM 28.1167 -82.6667 350° North 295 339 6,000 1,980 Climbing Tampa TRACON
07:46PM 28.2000 -82.7000 341° North 294 338 8,600 2,100 Climbing Tampa TRACON
07:48PM 28.3808 -82.7156 356° North 357 411 12,600 2,100 Climbing Miami Center
07:49PM 28.4650 -82.7250 354° North 362 417 14,700 2,520 Climbing Jacksonville Center
07:50PM 28.5756 -82.7367 355° North 377 434 17,200 2,220 Climbing Jacksonville Center
07:51PM 28.6800 -82.7742 343° North 391 450 19,200 1,920 Climbing Jacksonville Center
07:52PM 28.7719 -82.8453 326° Northwest 385 443 21,100 1,800 Climbing Jacksonville Center
07:53PM 28.8636 -82.9258 322° Northwest 399 459 22,800 1,740 Climbing Jacksonville Center
07:54PM 28.9639 -83.0064 325° Northwest 420 483 24,600 1,680 Climbing Jacksonville Center
07:55PM 29.0597 -83.0922 322° Northwest 431 496 26,200 1,440 Climbing Jacksonville Center
07:56PM 29.1578 -83.1781 323° Northwest 443 510 27,500 1,260 Climbing Jacksonville Center
07:57PM 29.2492 -83.2806 316° Northwest 448 516 28,800 1,320 Climbing Jacksonville Center
07:58PM 29.3408 -83.3808 316° Northwest 455 524 30,200 1,320 Climbing Jacksonville Center
08:03PM 29.7974 -83.8849 315° West 423 487 37,600 1,140 Climbing FlightAware ADS-B (KTLH)
08:04PM 29.9299 -84.0335 316° Northwest 419 482 38,000 180 Climbing FlightAware ADS-B (KTLH)
08:05PM 30.0217 -84.1368 316° Northwest 421 484 38,000  Level FlightAware ADS-B (KTLH)
08:06PM 30.0626 -84.1823 316° Northwest 421 484 38,000  Level FlightAware ADS-B (KTLH)
08:06PM 30.1073 -84.2343 315° West 419 482 38,000  Level FlightAware ADS-B (KTLH)
08:07PM 30.1771 -84.3128 316° Northwest 419 482 38,000  Level FlightAware ADS-B (KTLH)
08:08PM 30.2170 -84.3584 315° West 419 482 38,000  Level FlightAware ADS-B
08:08PM 30.2764 -84.4259 315° West 419 482 38,000  Level FlightAware ADS-B
08:09PM 30.3173 -84.4713 315° West 418 481 38,000  Level FlightAware ADS-B (KTLH)
08:09PM 30.3698 -84.5326 315° West 417 480 38,000  Level FlightAware ADS-B
08:10PM 30.4146 -84.5829 315° West 417 480 38,000  Level FlightAware ADS-B
08:11PM 30.4558 -84.6299 315° West 417 480 38,000 -240 Level FlightAware ADS-B
08:11PM 30.5036 -84.6853 315° West 421 484 37,800 -720 Descending FlightAware ADS-B (KTLH)
08:12PM 30.5514 -84.7394 315° West 425 489 37,200 -1,020 Descending FlightAware ADS-B (KTLH)
08:12PM 30.5928 -84.7878 315° West 429 494 36,700 -960 Descending FlightAware ADS-B
08:13PM 30.6506 -84.8527 315° West 427 491 36,100 -540 Descending FlightAware ADS-B
08:13PM 30.7059 -84.9172 315° West 425 489 36,000 -120 Descending FlightAware ADS-B
08:14PM 30.7475 -84.9656 315° West 425 489 36,000  Level FlightAware ADS-B
08:15PM 30.8190 -85.0480 315° West 427 491 36,000  Level FlightAware ADS-B
08:16PM 30.8845 -85.1244 315° West 430 495 36,000  Level FlightAware ADS-B
08:17PM 30.9575 -85.2086 315° West 425 489 36,000  Level Jacksonville Center
08:18PM 31.0411 -85.3075 315° West 425 489 36,000  Level Jacksonville Center
08:19PM 31.1269 -85.4069 315° West 425 489 36,000  Level Jacksonville Center
08:21PM 31.3619 -85.6875 314° West 430 495 36,000  Level Atlanta Center
08:22PM 31.4369 -85.7717 316° Northwest 431 496 36,000  Level Memphis Center
08:23PM 31.5303 -85.8856 314° West 430 495 36,000  Level Atlanta Center
08:24PM 31.6064 -85.9750 315° West 430 495 36,000  Level Atlanta Center
08:25PM 31.6922 -86.0744 315° West 430 495 36,000  Level Atlanta Center
08:26PM 31.7761 -86.1764 314° West 430 495 36,000  Level Atlanta Center
08:27PM 31.8619 -86.2786 315° West 435 501 36,000  Level Atlanta Center
08:28PM 31.9478 -86.3836 314° West 435 501 36,000  Level Atlanta Center
08:29PM 32.0397 -86.4867 316° Northwest 440 506 36,000  Level Atlanta Center
08:30PM 32.1231 -86.5894 314° West 440 506 36,000  Level Atlanta Center
08:31PM 32.2067 -86.6900 315° West 435 501 36,000 -180 Level Atlanta Center
08:32PM 32.2858 -86.7856 314° West 428 493 35,700 -660 Descending Atlanta Center
08:33PM 32.3711 -86.8892 314° West 428 493 34,700 -1,020 Descending Atlanta Center
08:34PM 32.4544 -86.9903 314° West 428 493 33,700 -1,020 Descending Atlanta Center
08:35PM 32.5353 -87.0914 313° West 433 498 32,700 -900 Descending Atlanta Center
08:36PM 32.6183 -87.1931 314° West 433 498 32,000 -360 Descending Atlanta Center
08:37PM 32.7036 -87.2922 316° Northwest 433 498 32,000  Level Atlanta Center
08:39PM 32.8356 -87.4600 313° West 429 494 32,000  Level Memphis Center
08:40PM 32.9194 -87.5625 314° West 429 494 32,000 -180 Level Memphis Center
08:41PM 33.0028 -87.6653 314° West 430 495 31,700 -1,020 Descending Memphis Center
08:42PM 33.0853 -87.7692 313° West 430 495 30,000 -840 Descending Memphis Center
08:43PM 33.1686 -87.8728 314° West 431 496 30,000  Level Memphis Center
08:44PM 33.2642 -87.9933 313° West 422 486 30,000  Level Memphis Center
08:45PM 33.3458 -88.0950 314° West 421 484 30,000  Level Memphis Center
08:46PM 33.4269 -88.1969 314° West 422 486 30,000  Level Memphis Center
08:47PM 33.5006 -88.2892 314° West 422 486 30,000  Level Memphis Center
08:48PM 33.5886 -88.4022 313° West 422 486 30,000  Level Memphis Center
08:49PM 33.6689 -88.5042 313° West 422 486 30,000  Level Memphis Center
08:50PM 33.7503 -88.6075 313° West 422 486 30,000  Level Memphis Center
08:51PM 33.8308 -88.7117 313° West 422 486 30,000  Level Memphis Center
08:52PM 33.9128 -88.8161 313° West 423 487 30,000  Level Memphis Center
08:53PM 34.0047 -88.9356 313° West 424 488 30,000  Level Memphis Center
08:54PM 34.0858 -89.0392 313° West 424 488 30,000  Level Memphis Center
08:55PM 34.1669 -89.1444 313° West 425 489 30,000  Level Memphis Center
08:56PM 34.2483 -89.2497 313° West 425 489 30,000  Level Memphis Center
08:57PM 34.3447 -89.3756 313° West 425 489 30,000  Level Memphis Center
08:58PM 34.4261 -89.4808 313° West 425 489 30,000  Level Memphis Center
08:59PM 34.5061 -89.5869 312° West 426 490 30,000  Level Memphis Center
09:00PM 34.5858 -89.6931 312° West 425 489 30,000  Level Memphis Center
09:02PM 34.6672 -89.8006 313° West 426 490 30,000  Level Memphis Center
09:03PM 34.7489 -89.9094 312° West 426 490 30,000  Level Memphis Center
09:04PM 34.8308 -90.0169 313° West 426 490 30,000  Level Memphis Center
09:05PM 34.9114 -90.1225 313° West 426 490 30,000  Level Memphis Center
09:06PM 34.9900 -90.2281 312° West 423 487 30,000  Level Memphis Center
09:07PM 35.0694 -90.3347 312° West 423 487 30,000  Level Memphis Center
09:08PM 35.1494 -90.4417 312° West 423 487 30,000  Level Memphis Center
09:09PM 35.2447 -90.5706 312° West 424 488 30,000  Level Memphis Center
09:10PM 35.3231 -90.6772 312° West 423 487 30,000  Level Memphis Center
09:11PM 35.4031 -90.7853 312° West 424 488 30,000  Level Memphis Center
09:12PM 35.4819 -90.8922 312° West 424 488 30,000  Level Memphis Center
09:13PM 35.5600 -91.0006 312° West 424 488 30,000  Level Memphis Center
09:14PM 35.6392 -91.1075 312° West 424 488 30,000  Level Memphis Center
09:15PM 35.7239 -91.2258 311° West 423 487 30,000  Level Memphis Center
09:16PM 35.8047 -91.3336 313° West 423 487 30,000  Level Memphis Center
09:17PM 35.8814 -91.4417 311° West 422 486 30,000  Level Memphis Center
09:18PM 35.9583 -91.5481 312° West 418 481 30,000  Level Memphis Center
09:19PM 36.0381 -91.6572 312° West 421 484 30,000 -480 Level Memphis Center
09:20PM 36.1156 -91.7631 312° West 421 484 29,100 -1,080 Descending Memphis Center
09:21PM 36.1975 -91.8814 311° West 398 458 27,900 -1,260 Descending Memphis Center
09:22PM 36.2642 -91.9769 311° West 382 440 26,600 -1,500 Descending Memphis Center
09:23PM 36.3297 -92.0714 311° West 373 429 24,800 -1,740 Descending Memphis Center
09:24PM 36.3953 -92.1622 312° West 363 418 23,100 -1,620 Descending Memphis Center
09:25PM 36.4575 -92.2506 311° West 351 404 21,500 -1,620 Descending Memphis Center
09:26PM 36.5192 -92.3403 311° West 339 390 19,800 -1,620 Descending Memphis Center
09:27PM 36.5786 -92.4239 312° West 331 381 18,200 -1,560 Descending Memphis Center
09:28PM 36.6364 -92.5047 312° West 320 368 16,700 -1,620 Descending Memphis Center
09:29PM 36.7022 -92.5997 311° West 308 354 14,900 -1,440 Descending Memphis Center
09:35PM 36.9861 -93.0091 311° West 277 319 7,800 -1,380 Descending FlightAware ADS-B
09:36PM 37.0325 -93.0932 297° West 271 312 6,100 -1,380 Descending FlightAware ADS-B
09:36PM 37.0478 -93.1304 297° West 260 299 5,700 -900 Descending FlightAware ADS-B
09:37PM 37.0648 -93.1710 297° West 234 269 5,200 -960 Descending FlightAware ADS-B
09:37PM 37.0721 -93.1887 297° West 226 260 5,000 -600 Descending FlightAware ADS-B
09:37PM 37.0854 -93.2216 297° West 201 231 4,800 -420 Descending FlightAware ADS-B
09:38PM 37.0919 -93.2364 304° West 188 216 4,700 -420 Descending FlightAware ADS-B
09:38PM 37.0987 -93.2463 319° Northwest 189 217 4,600 -840 Descending FlightAware ADS-B
09:38PM 37.1113 -93.2588 322° Northwest 191 220 4,300 -1,020 Descending FlightAware ADS-B
09:39PM 37.1378 -93.2850 322° Northwest 193 222 3,700 -900 Descending FlightAware ADS-B
09:40PM 37.1658 -93.3119 322° Northwest 201 231 3,100 -720 Descending Memphis Center
09:40PM 37.1881 -93.3336 322° Northwest 191 220 2,600 -900 Descending Kansas City Center
09:41PM 37.2319 -93.3778 321° Northwest 160 184 1,500 -1,020 Descending Kansas City Center